Time;durP1;ratioP1;P1;durP2;ratioP2;P2;SDS_P1;SDS_P2;PMS_P1;PMS_P2;Temp;Humidity;BMP_temperature;BMP_pressure;BME280_temperature;BME280_humidity;BME280_pressure;Samples;Min_cycle;Max_cycle;Signal;HPM_P1;HPM_P2
2024/02/02 00:01:45;;;;;;;31.70;4.30;;;;;;;;;;5007317;28;20046;-69
2024/02/02 00:04:12;;;;;;;22.67;2.97;;;;;;;;;;5021067;28;20087;-69
2024/02/02 00:06:38;;;;;;;22.10;3.67;;;;;;;;;;5007871;28;20100;-69
2024/02/02 00:09:06;;;;;;;39.15;4.32;;;;;;;;;;5009051;28;20101;-68
2024/02/02 00:11:31;;;;;;;23.23;4.07;;;;;;;;;;5023916;28;20184;-68
2024/02/02 00:13:57;;;;;;;18.00;3.97;;;;;;;;;;5022057;28;20116;-69
2024/02/02 00:16:22;;;;;;;20.08;4.10;;;;;;;;;;5001610;28;20041;-69
2024/02/02 00:18:47;;;;;;;35.55;4.90;;;;;;;;;;5026513;28;20029;-70
2024/02/02 00:21:13;;;;;;;22.00;4.90;;;;;;;;;;5018930;28;20608;-69
2024/02/02 00:23:38;;;;;;;34.97;4.75;;;;;;;;;;5018267;28;20030;-69
2024/02/02 00:26:03;;;;;;;18.38;3.95;;;;;;;;;;5020187;28;20041;-69
2024/02/02 00:28:29;;;;;;;24.77;4.43;;;;;;;;;;5015264;28;20038;-69
2024/02/02 00:30:54;;;;;;;18.17;3.90;;;;;;;;;;5015672;28;20413;-69
2024/02/02 00:33:19;;;;;;;25.90;5.13;;;;;;;;;;5014572;28;20642;-70
2024/02/02 00:35:45;;;;;;;24.50;3.95;;;;;;;;;;5014784;28;20478;-69
2024/02/02 00:38:10;;;;;;;24.63;4.03;;;;;;;;;;5015503;28;20054;-69
2024/02/02 00:40:36;;;;;;;29.20;4.57;;;;;;;;;;4998502;28;20080;-68
2024/02/02 00:43:01;;;;;;;31.08;5.03;;;;;;;;;;5020782;28;20045;-68
2024/02/02 00:45:26;;;;;;;29.20;3.95;;;;;;;;;;5014143;28;20106;-68
2024/02/02 00:47:51;;;;;;;14.95;4.35;;;;;;;;;;5022235;28;20120;-69
2024/02/02 00:50:17;;;;;;;20.85;4.40;;;;;;;;;;5017976;28;20481;-69
2024/02/02 00:52:42;;;;;;;23.73;5.00;;;;;;;;;;5026529;28;20372;-69
2024/02/02 00:55:08;;;;;;;28.05;5.03;;;;;;;;;;5021627;28;20644;-69
2024/02/02 00:57:33;;;;;;;14.93;3.78;;;;;;;;;;5029294;28;20052;-69
2024/02/02 00:59:58;;;;;;;33.55;5.18;;;;;;;;;;5021901;28;20037;-69
2024/02/02 01:02:24;;;;;;;30.63;4.72;;;;;;;;;;5026733;28;20401;-69
2024/02/02 01:04:49;;;;;;;39.05;4.68;;;;;;;;;;5019146;28;20034;-69
2024/02/02 01:07:18;;;;;;;17.70;4.22;;;;;;;;;;5017663;28;20049;-69
2024/02/02 01:09:44;;;;;;;29.25;5.57;;;;;;;;;;5026850;28;20041;-69
2024/02/02 01:12:10;;;;;;;15.77;4.53;;;;;;;;;;5029170;28;20041;-69
2024/02/02 01:14:37;;;;;;;32.53;4.60;;;;;;;;;;5017225;28;20032;-68
2024/02/02 01:17:03;;;;;;;22.08;4.47;;;;;;;;;;5025704;28;20045;-68
2024/02/02 01:19:28;;;;;;;29.95;5.28;;;;;;;;;;5016062;28;20046;-69
2024/02/02 01:21:54;;;;;;;9.38;3.67;;;;;;;;;;5019128;28;20065;-69
2024/02/02 01:24:19;;;;;;;20.58;4.57;;;;;;;;;;5019086;28;20036;-69
2024/02/02 01:26:44;;;;;;;36.92;5.82;;;;;;;;;;5023462;28;20046;-69
2024/02/02 01:29:10;;;;;;;28.13;5.80;;;;;;;;;;5022103;28;20068;-70
2024/02/02 01:31:35;;;;;;;22.63;4.45;;;;;;;;;;5017984;28;20124;-69
2024/02/02 01:34:01;;;;;;;22.73;5.65;;;;;;;;;;5018232;28;20095;-68
2024/02/02 01:36:26;;;;;;;24.00;6.25;;;;;;;;;;5016413;28;20072;-68
2024/02/02 01:38:54;;;;;;;20.02;4.78;;;;;;;;;;5021435;28;20041;-70
2024/02/02 01:41:19;;;;;;;26.77;6.25;;;;;;;;;;5016491;28;20477;-68
2024/02/02 01:43:45;;;;;;;26.73;6.00;;;;;;;;;;5021999;28;20041;-69
2024/02/02 01:46:12;;;;;;;28.65;6.40;;;;;;;;;;5024728;28;20045;-69
2024/02/02 01:48:37;;;;;;;37.75;7.15;;;;;;;;;;5028536;28;20128;-70
2024/02/02 01:51:02;;;;;;;31.00;7.55;;;;;;;;;;5022446;28;20117;-69
2024/02/02 01:53:28;;;;;;;28.05;6.60;;;;;;;;;;5030883;28;20120;-69
2024/02/02 01:55:53;;;;;;;27.75;6.47;;;;;;;;;;5005693;28;20038;-68
2024/02/02 01:58:19;;;;;;;22.55;6.32;;;;;;;;;;5026272;28;20064;-69
2024/02/02 02:00:45;;;;;;;29.48;7.10;;;;;;;;;;4995514;28;20091;-69
2024/02/02 02:03:10;;;;;;;20.88;6.43;;;;;;;;;;5019645;28;20068;-69
2024/02/02 02:05:36;;;;;;;28.08;5.60;;;;;;;;;;5022430;28;20475;-70
2024/02/02 02:08:02;;;;;;;25.92;5.82;;;;;;;;;;5021358;28;20524;-68
2024/02/02 02:10:29;;;;;;;24.95;6.45;;;;;;;;;;4991904;28;20065;-69
2024/02/02 02:12:54;;;;;;;25.27;6.50;;;;;;;;;;5022653;28;20040;-69
2024/02/02 02:15:20;;;;;;;28.95;7.03;;;;;;;;;;5018359;28;20029;-69
2024/02/02 02:17:48;;;;;;;30.48;6.63;;;;;;;;;;5019663;28;20048;-69
2024/02/02 02:20:14;;;;;;;25.38;6.82;;;;;;;;;;5020514;28;20045;-69
2024/02/02 02:22:39;;;;;;;35.97;7.55;;;;;;;;;;5009804;28;20041;-69
2024/02/02 02:25:05;;;;;;;27.15;7.75;;;;;;;;;;5016813;28;20404;-68
2024/02/02 02:27:31;;;;;;;27.75;7.78;;;;;;;;;;5024141;28;20064;-69
2024/02/02 02:29:58;;;;;;;31.05;8.30;;;;;;;;;;5018293;28;20034;-69
2024/02/02 02:32:24;;;;;;;31.27;8.00;;;;;;;;;;5011451;28;20413;-69
2024/02/02 02:34:49;;;;;;;16.77;7.82;;;;;;;;;;5012934;28;20041;-69
2024/02/02 02:37:15;;;;;;;25.55;8.05;;;;;;;;;;5017055;28;20042;-68
2024/02/02 02:39:40;;;;;;;22.73;7.70;;;;;;;;;;5019989;28;20033;-68
2024/02/02 02:42:05;;;;;;;21.65;8.98;;;;;;;;;;5001978;28;20046;-68
2024/02/02 02:44:31;;;;;;;21.20;8.25;;;;;;;;;;5020974;28;20045;-69
2024/02/02 02:46:57;;;;;;;32.88;10.07;;;;;;;;;;5023600;28;20474;-69
2024/02/02 02:49:22;;;;;;;22.45;8.65;;;;;;;;;;5018207;28;20084;-69
2024/02/02 02:51:47;;;;;;;27.00;9.00;;;;;;;;;;5013888;28;20042;-69
2024/02/02 02:54:13;;;;;;;19.05;8.27;;;;;;;;;;5022685;28;20033;-69
2024/02/02 02:56:38;;;;;;;17.48;8.48;;;;;;;;;;5010813;28;20030;-69
2024/02/02 02:59:03;;;;;;;19.42;8.68;;;;;;;;;;5027688;28;20552;-69
2024/02/02 03:01:29;;;;;;;18.77;7.63;;;;;;;;;;5014695;28;20635;-69
2024/02/02 03:03:54;;;;;;;13.77;6.72;;;;;;;;;;5012730;28;20474;-70
2024/02/02 03:06:20;;;;;;;14.38;6.80;;;;;;;;;;5019324;28;20034;-68
2024/02/02 03:08:45;;;;;;;19.63;7.15;;;;;;;;;;5014981;28;20069;-69
2024/02/02 03:11:10;;;;;;;17.50;7.30;;;;;;;;;;5015289;28;20034;-69
2024/02/02 03:13:36;;;;;;;16.05;6.65;;;;;;;;;;5020394;28;20116;-68
2024/02/02 03:16:01;;;;;;;9.32;5.45;;;;;;;;;;5015224;28;20042;-69
2024/02/02 03:18:26;;;;;;;10.25;5.57;;;;;;;;;;5024115;28;20550;-69
2024/02/02 03:20:52;;;;;;;14.60;6.35;;;;;;;;;;5024499;28;20489;-68
2024/02/02 03:23:17;;;;;;;11.23;5.43;;;;;;;;;;5007463;28;20037;-69
2024/02/02 03:25:42;;;;;;;8.13;5.57;;;;;;;;;;5016984;28;20408;-68
2024/02/02 03:28:08;;;;;;;13.15;5.47;;;;;;;;;;5014782;28;20627;-68
2024/02/02 03:30:33;;;;;;;12.70;5.22;;;;;;;;;;5014895;28;20384;-69
2024/02/02 03:32:58;;;;;;;10.93;4.82;;;;;;;;;;5028206;28;20381;-68
2024/02/02 03:35:24;;;;;;;10.45;3.90;;;;;;;;;;5018763;28;20041;-70
2024/02/02 03:37:49;;;;;;;11.57;5.45;;;;;;;;;;5014975;28;20100;-69
2024/02/02 03:40:14;;;;;;;11.77;5.07;;;;;;;;;;5014236;28;20036;-69
2024/02/02 03:42:40;;;;;;;9.63;4.95;;;;;;;;;;5027051;28;20038;-70
2024/02/02 03:45:06;;;;;;;9.82;4.30;;;;;;;;;;5014749;28;20053;-68
2024/02/02 03:47:31;;;;;;;10.73;5.25;;;;;;;;;;5020071;28;20120;-70
2024/02/02 03:49:56;;;;;;;13.70;4.95;;;;;;;;;;5022595;28;20129;-69
2024/02/02 03:52:23;;;;;;;10.25;5.05;;;;;;;;;;5020632;28;20041;-70
2024/02/02 03:54:52;;;;;;;8.80;4.93;;;;;;;;;;5011454;28;20022;-69
2024/02/02 03:57:17;;;;;;;10.52;5.78;;;;;;;;;;5022610;28;21350;-69
2024/02/02 03:59:43;;;;;;;12.55;4.15;;;;;;;;;;5012294;28;20034;-69
2024/02/02 04:02:08;;;;;;;8.63;4.70;;;;;;;;;;5015790;28;20469;-69
2024/02/02 04:04:34;;;;;;;7.72;3.90;;;;;;;;;;5015634;28;20091;-69
2024/02/02 04:07:00;;;;;;;8.13;3.97;;;;;;;;;;4996196;28;20034;-69
2024/02/02 04:09:25;;;;;;;3.97;2.42;;;;;;;;;;5024997;28;20116;-69
2024/02/02 04:11:50;;;;;;;11.45;3.13;;;;;;;;;;5020891;28;20441;-68
2024/02/02 04:14:15;;;;;;;5.60;2.85;;;;;;;;;;5011114;28;20049;-69
2024/02/02 04:16:41;;;;;;;3.53;2.20;;;;;;;;;;5008222;28;20053;-69
2024/02/02 04:19:08;;;;;;;8.02;2.65;;;;;;;;;;5026745;28;20056;-69
2024/02/02 04:21:33;;;;;;;3.20;2.13;;;;;;;;;;5020284;28;20508;-68
2024/02/02 04:23:59;;;;;;;6.32;1.98;;;;;;;;;;5008927;28;20026;-69
2024/02/02 04:26:24;;;;;;;4.07;2.35;;;;;;;;;;4999513;28;20041;-69
2024/02/02 04:28:49;;;;;;;8.07;2.10;;;;;;;;;;5028085;28;20172;-69
2024/02/02 04:31:14;;;;;;;7.15;2.50;;;;;;;;;;5025000;28;20041;-69
2024/02/02 04:33:40;;;;;;;5.55;2.10;;;;;;;;;;5018397;28;20041;-69
2024/02/02 04:36:05;;;;;;;6.00;2.10;;;;;;;;;;5020299;28;20126;-69
2024/02/02 04:38:31;;;;;;;4.18;2.30;;;;;;;;;;5010365;28;20030;-69
2024/02/02 04:40:56;;;;;;;5.07;1.88;;;;;;;;;;5020613;28;20068;-70
2024/02/02 04:43:22;;;;;;;7.50;2.25;;;;;;;;;;5018346;28;20080;-69
2024/02/02 04:45:47;;;;;;;5.13;2.80;;;;;;;;;;5011218;28;20040;-70
2024/02/02 04:48:12;;;;;;;4.72;2.00;;;;;;;;;;5013371;28;20157;-69
2024/02/02 04:50:38;;;;;;;3.25;1.95;;;;;;;;;;5016310;28;20068;-69
2024/02/02 04:53:03;;;;;;;4.93;2.42;;;;;;;;;;5028191;28;20040;-69
2024/02/02 04:55:29;;;;;;;7.22;2.35;;;;;;;;;;5018733;28;20044;-68
2024/02/02 04:57:54;;;;;;;6.28;2.15;;;;;;;;;;5027553;28;20037;-69
2024/02/02 05:00:19;;;;;;;4.80;2.15;;;;;;;;;;5014892;28;20061;-68
2024/02/02 05:02:45;;;;;;;5.93;2.05;;;;;;;;;;5020154;28;20042;-69
2024/02/02 05:05:10;;;;;;;4.10;2.00;;;;;;;;;;5026686;28;20103;-69
2024/02/02 05:07:36;;;;;;;5.15;2.50;;;;;;;;;;5020579;28;20026;-69
2024/02/02 05:10:04;;;;;;;6.28;2.22;;;;;;;;;;5028491;28;20526;-69
2024/02/02 05:12:29;;;;;;;3.78;1.98;;;;;;;;;;5017519;28;20041;-68
2024/02/02 05:14:55;;;;;;;3.13;2.00;;;;;;;;;;5015477;28;20042;-69
2024/02/02 05:17:20;;;;;;;5.47;2.30;;;;;;;;;;5020182;28;20054;-69
2024/02/02 05:19:46;;;;;;;4.00;2.03;;;;;;;;;;5017539;28;20125;-69
2024/02/02 05:22:12;;;;;;;3.10;2.10;;;;;;;;;;5023166;28;20033;-69
2024/02/02 05:24:37;;;;;;;3.42;1.92;;;;;;;;;;5028004;28;20501;-70
2024/02/02 05:27:03;;;;;;;3.83;2.00;;;;;;;;;;5019807;28;20087;-69
2024/02/02 05:29:28;;;;;;;5.03;2.47;;;;;;;;;;5019466;28;20080;-69
2024/02/02 05:31:53;;;;;;;4.57;2.70;;;;;;;;;;5002433;28;20042;-69
2024/02/02 05:34:19;;;;;;;4.88;2.60;;;;;;;;;;5019033;28;20545;-68
2024/02/02 05:36:44;;;;;;;4.53;2.53;;;;;;;;;;5011222;28;20045;-69
2024/02/02 05:39:10;;;;;;;5.38;2.85;;;;;;;;;;5024484;28;20034;-69
2024/02/02 05:41:35;;;;;;;4.13;2.63;;;;;;;;;;5019995;28;20056;-68
2024/02/02 05:44:01;;;;;;;6.45;3.30;;;;;;;;;;5026037;28;20036;-68
2024/02/02 05:46:26;;;;;;;5.60;3.35;;;;;;;;;;5017430;28;20046;-69
2024/02/02 05:48:51;;;;;;;5.93;3.60;;;;;;;;;;5026089;28;20072;-69
2024/02/02 05:51:17;;;;;;;7.05;3.20;;;;;;;;;;5024536;28;20022;-68
2024/02/02 05:53:42;;;;;;;7.07;4.00;;;;;;;;;;5013105;28;20045;-69
2024/02/02 05:56:07;;;;;;;5.72;3.13;;;;;;;;;;5022731;28;20537;-69
2024/02/02 05:58:32;;;;;;;8.75;3.50;;;;;;;;;;5026961;28;20434;-68
2024/02/02 06:00:58;;;;;;;4.22;2.75;;;;;;;;;;5022686;28;20627;-70
2024/02/02 06:03:23;;;;;;;6.82;3.47;;;;;;;;;;5019537;28;20397;-70
2024/02/02 06:05:48;;;;;;;7.53;3.28;;;;;;;;;;5018724;28;20386;-69
2024/02/02 06:08:15;;;;;;;5.22;3.30;;;;;;;;;;5016724;28;20040;-70
2024/02/02 06:10:40;;;;;;;6.13;3.20;;;;;;;;;;5022329;28;20482;-68
2024/02/02 06:13:07;;;;;;;7.25;3.03;;;;;;;;;;5022484;28;20048;-69
2024/02/02 06:15:32;;;;;;;6.65;2.40;;;;;;;;;;5016042;28;20137;-69
2024/02/02 06:17:58;;;;;;;6.97;2.90;;;;;;;;;;5015237;28;20074;-69
2024/02/02 06:20:23;;;;;;;5.80;2.97;;;;;;;;;;5017060;28;20033;-69
2024/02/02 06:22:50;;;;;;;5.68;2.75;;;;;;;;;;5012881;28;20110;-70
2024/02/02 06:25:15;;;;;;;3.83;2.20;;;;;;;;;;5014388;28;20609;-70
2024/02/02 06:27:40;;;;;;;3.85;1.77;;;;;;;;;;5027197;28;20056;-70
2024/02/02 06:30:07;;;;;;;4.82;1.88;;;;;;;;;;5009630;28;20401;-68
2024/02/02 06:32:35;;;;;;;6.20;2.00;;;;;;;;;;5017359;28;20675;-69
2024/02/02 06:35:01;;;;;;;4.75;1.40;;;;;;;;;;5011637;28;20029;-69
2024/02/02 06:37:27;;;;;;;2.95;1.33;;;;;;;;;;5014148;28;20378;-69
2024/02/02 06:39:52;;;;;;;1.80;1.05;;;;;;;;;;5017028;28;20030;-70
2024/02/02 06:42:19;;;;;;;2.15;1.02;;;;;;;;;;5002707;28;20095;-70
2024/02/02 06:44:44;;;;;;;5.00;1.33;;;;;;;;;;5024739;28;20030;-70
2024/02/02 06:47:09;;;;;;;4.45;1.17;;;;;;;;;;5021481;28;20045;-69
2024/02/02 06:49:35;;;;;;;4.93;1.10;;;;;;;;;;5026602;28;20057;-70
2024/02/02 06:52:01;;;;;;;2.50;1.15;;;;;;;;;;5012176;28;20033;-68
2024/02/02 06:54:26;;;;;;;1.58;0.80;;;;;;;;;;5020810;28;20052;-68
2024/02/02 06:56:52;;;;;;;3.15;0.98;;;;;;;;;;5021843;28;20380;-69
2024/02/02 06:59:18;;;;;;;2.40;1.20;;;;;;;;;;5021071;28;20061;-69
2024/02/02 07:01:44;;;;;;;0.98;0.60;;;;;;;;;;5022558;28;20072;-69
2024/02/02 07:04:12;;;;;;;2.25;0.60;;;;;;;;;;5017719;28;20534;-70
2024/02/02 07:06:38;;;;;;;1.90;1.00;;;;;;;;;;5017915;28;20040;-70
2024/02/02 07:09:32;;;;;;;1.95;1.02;;;;;;;;;;5016862;28;20041;-69
2024/02/02 07:12:10;;;;;;;1.63;0.80;;;;;;;;;;5016384;28;20040;-68
2024/02/02 07:14:49;;;;;;;7.35;1.30;;;;;;;;;;4996822;28;20034;-69
2024/02/02 07:17:36;;;;;;;2.03;1.10;;;;;;;;;;5004242;28;20054;-68
2024/02/02 07:20:05;;;;;;;3.53;1.65;;;;;;;;;;4994049;28;20429;-69
2024/02/02 07:22:38;;;;;;;2.55;1.50;;;;;;;;;;5016847;28;20056;-70
2024/02/02 07:25:05;;;;;;;3.33;1.52;;;;;;;;;;4990278;28;20041;-70
2024/02/02 07:27:42;;;;;;;2.67;1.27;;;;;;;;;;5020099;28;20037;-69
2024/02/02 07:30:30;;;;;;;2.67;1.20;;;;;;;;;;5021179;28;20081;-69
2024/02/02 07:32:57;;;;;;;3.33;1.20;;;;;;;;;;5006425;28;20617;-69
2024/02/02 07:35:31;;;;;;;3.13;1.38;;;;;;;;;;5019389;28;20041;-69
2024/02/02 07:38:03;;;;;;;1.70;0.98;;;;;;;;;;5016878;28;20029;-69
2024/02/02 07:40:53;;;;;;;4.63;1.30;;;;;;;;;;5003476;28;20041;-69
2024/02/02 07:43:19;;;;;;;1.98;0.90;;;;;;;;;;5004895;28;20042;-68
2024/02/02 07:45:44;;;;;;;2.88;1.17;;;;;;;;;;5013876;28;20107;-69
2024/02/02 07:48:09;;;;;;;1.75;0.93;;;;;;;;;;5001342;28;20367;-69
2024/02/02 07:50:35;;;;;;;3.42;1.70;;;;;;;;;;5014183;28;20252;-70
2024/02/02 07:53:00;;;;;;;3.63;1.50;;;;;;;;;;5021727;28;20121;-69
2024/02/02 07:55:25;;;;;;;3.53;1.77;;;;;;;;;;5012018;28;20045;-69
2024/02/02 07:57:51;;;;;;;3.20;1.70;;;;;;;;;;5017801;28;20042;-70
2024/02/02 08:00:16;;;;;;;3.22;1.60;;;;;;;;;;5013253;28;20113;-70
2024/02/02 08:02:42;;;;;;;3.05;1.67;;;;;;;;;;5016066;28;20076;-69
2024/02/02 08:05:08;;;;;;;4.55;2.13;;;;;;;;;;5010544;28;20038;-70
2024/02/02 08:07:34;;;;;;;4.75;2.05;;;;;;;;;;4997944;28;20056;-70
2024/02/02 08:09:59;;;;;;;4.55;2.38;;;;;;;;;;5009282;28;20049;-68
2024/02/02 08:12:24;;;;;;;4.03;2.10;;;;;;;;;;5014950;28;20481;-69
2024/02/02 08:14:50;;;;;;;4.53;2.15;;;;;;;;;;5011807;28;20117;-69
2024/02/02 08:17:15;;;;;;;4.40;2.20;;;;;;;;;;5020178;28;20049;-69
2024/02/02 08:19:40;;;;;;;4.88;2.10;;;;;;;;;;5012245;28;20034;-69
2024/02/02 08:22:06;;;;;;;5.05;1.83;;;;;;;;;;5014556;28;20042;-69
2024/02/02 08:24:31;;;;;;;6.00;2.58;;;;;;;;;;5010809;28;20038;-68
2024/02/02 08:26:56;;;;;;;4.75;2.42;;;;;;;;;;5020741;28;20037;-69
2024/02/02 08:29:22;;;;;;;4.95;2.28;;;;;;;;;;5030858;28;20443;-69
2024/02/02 08:31:47;;;;;;;3.03;1.65;;;;;;;;;;5025226;28;20026;-69
2024/02/02 08:34:13;;;;;;;2.53;1.33;;;;;;;;;;4999437;28;20091;-68
2024/02/02 08:36:38;;;;;;;3.13;1.73;;;;;;;;;;5007942;28;20511;-69
2024/02/02 08:39:11;;;;;;;2.85;1.33;;;;;;;;;;4996170;28;20398;-69
2024/02/02 08:41:37;;;;;;;3.17;1.90;;;;;;;;;;5005489;28;20495;-69
2024/02/02 08:44:13;;;;;;;3.35;1.83;;;;;;;;;;5018607;28;20384;-69
2024/02/02 08:46:38;;;;;;;3.05;1.70;;;;;;;;;;4999638;28;20497;-69
2024/02/02 08:49:03;;;;;;;4.07;1.80;;;;;;;;;;5029648;28;20071;-69
2024/02/02 08:51:33;;;;;;;5.75;2.80;;;;;;;;;;5027786;28;20432;-69
2024/02/02 08:54:15;;;;;;;4.65;1.60;;;;;;;;;;5031755;28;20036;-69
2024/02/02 08:57:04;;;;;;;3.70;2.35;;;;;;;;;;5018684;28;20613;-69
2024/02/02 08:59:32;;;;;;;3.70;2.28;;;;;;;;;;5001156;28;20037;-69
2024/02/02 09:01:58;;;;;;;5.10;2.10;;;;;;;;;;5022971;28;20041;-69
2024/02/02 09:04:48;;;;;;;3.88;2.40;;;;;;;;;;5015490;28;20460;-69
2024/02/02 09:07:13;;;;;;;4.40;2.47;;;;;;;;;;5021626;28;20093;-69
2024/02/02 09:09:40;;;;;;;5.88;2.63;;;;;;;;;;5000237;28;20113;-68
2024/02/02 09:12:05;;;;;;;4.43;2.30;;;;;;;;;;4998596;28;20048;-69
2024/02/02 09:14:31;;;;;;;3.22;1.88;;;;;;;;;;5020193;28;20049;-70
2024/02/02 09:16:57;;;;;;;3.25;1.90;;;;;;;;;;5012363;28;20045;-69
2024/02/02 09:19:25;;;;;;;3.60;1.90;;;;;;;;;;5012278;28;20034;-69
2024/02/02 09:21:51;;;;;;;2.55;1.50;;;;;;;;;;5014012;28;20037;-69
2024/02/02 09:24:26;;;;;;;3.42;2.03;;;;;;;;;;5015345;28;20076;-69
2024/02/02 09:26:52;;;;;;;4.40;2.17;;;;;;;;;;4996548;28;20033;-68
2024/02/02 09:29:18;;;;;;;5.05;2.65;;;;;;;;;;5006574;28;20033;-69
2024/02/02 09:31:43;;;;;;;4.07;2.35;;;;;;;;;;5013726;28;20048;-68
2024/02/02 09:34:10;;;;;;;3.58;2.45;;;;;;;;;;4992401;28;20034;-70
2024/02/02 09:36:36;;;;;;;4.00;2.10;;;;;;;;;;5009008;28;20042;-69
2024/02/02 09:39:05;;;;;;;3.38;1.90;;;;;;;;;;5012888;28;20457;-68
2024/02/02 09:41:54;;;;;;;4.65;2.13;;;;;;;;;;5010811;28;20100;-69
2024/02/02 09:44:35;;;;;;;5.43;2.00;;;;;;;;;;5009616;28;20124;-70
2024/02/02 09:47:25;;;;;;;3.78;2.20;;;;;;;;;;4993478;28;20122;-68
2024/02/02 09:50:12;;;;;;;3.50;2.00;;;;;;;;;;4989558;28;20185;-69
2024/02/02 09:53:10;;;;;;;4.22;2.10;;;;;;;;;;4996727;28;20184;-69
2024/02/02 09:55:41;;;;;;;3.42;1.88;;;;;;;;;;5002567;28;20057;-69
2024/02/02 09:58:11;;;;;;;5.43;1.85;;;;;;;;;;4999164;28;20489;-69
2024/02/02 10:01:19;;;;;;;3.50;1.50;;;;;;;;;;4988348;28;20481;-71
2024/02/02 10:03:57;;;;;;;2.03;1.38;;;;;;;;;;4966914;28;20038;-69
2024/02/02 10:06:23;;;;;;;2.50;1.48;;;;;;;;;;5003860;28;20104;-69
2024/02/02 10:08:55;;;;;;;2.22;1.40;;;;;;;;;;5010821;28;20030;-69
2024/02/02 10:11:45;;;;;;;4.35;1.55;;;;;;;;;;5012609;28;20546;-68
2024/02/02 10:14:20;;;;;;;1.85;1.00;;;;;;;;;;5015086;28;20049;-68
2024/02/02 10:17:12;;;;;;;2.72;1.13;;;;;;;;;;5018475;28;20077;-69
2024/02/02 10:19:37;;;;;;;1.73;0.95;;;;;;;;;;5001154;28;20894;-69
2024/02/02 10:22:09;;;;;;;1.67;1.00;;;;;;;;;;5016181;28;20041;-69
2024/02/02 10:25:07;;;;;;;1.60;0.90;;;;;;;;;;5015920;28;20026;-70
2024/02/02 10:27:56;;;;;;;1.15;0.80;;;;;;;;;;4991568;28;20088;-68
2024/02/02 10:30:31;;;;;;;2.38;0.90;;;;;;;;;;4997773;28;20021;-69
2024/02/02 10:33:12;;;;;;;1.20;0.70;;;;;;;;;;5012638;28;20049;-69
2024/02/02 10:36:18;;;;;;;1.08;0.70;;;;;;;;;;5012992;28;20033;-68
2024/02/02 10:39:15;;;;;;;2.00;0.93;;;;;;;;;;4971448;28;20049;-68
2024/02/02 10:42:14;;;;;;;1.77;0.90;;;;;;;;;;4999443;28;20068;-69
2024/02/02 10:44:52;;;;;;;1.70;1.00;;;;;;;;;;4991338;28;20057;-69
2024/02/02 10:47:48;;;;;;;2.65;1.10;;;;;;;;;;5012591;28;20221;-69
2024/02/02 10:50:20;;;;;;;2.13;1.13;;;;;;;;;;5020772;28;20124;-69
2024/02/02 10:52:53;;;;;;;2.05;1.08;;;;;;;;;;4999307;28;20092;-69
2024/02/02 10:55:45;;;;;;;1.98;1.00;;;;;;;;;;5018030;28;20127;-69
2024/02/02 10:58:43;;;;;;;1.92;1.00;;;;;;;;;;5003328;28;20088;-68
2024/02/02 11:01:46;;;;;;;3.17;1.60;;;;;;;;;;5022525;28;20037;-69
2024/02/02 11:05:01;;;;;;;3.13;1.30;;;;;;;;;;5009227;28;20439;-69
2024/02/02 11:07:29;;;;;;;2.28;1.35;;;;;;;;;;5001163;28;20679;-70
2024/02/02 11:09:57;;;;;;;3.05;1.10;;;;;;;;;;4990767;28;20038;-71
2024/02/02 11:12:50;;;;;;;1.67;1.17;;;;;;;;;;5004687;28;20474;-68
2024/02/02 11:15:40;;;;;;;3.28;1.20;;;;;;;;;;5002398;28;20497;-68
2024/02/02 11:18:24;;;;;;;3.17;1.42;;;;;;;;;;5009798;28;20080;-69
2024/02/02 11:20:55;;;;;;;2.70;1.35;;;;;;;;;;5009119;28;20038;-69
2024/02/02 11:23:39;;;;;;;2.28;1.20;;;;;;;;;;5018608;28;20041;-68
2024/02/02 11:26:11;;;;;;;2.22;1.25;;;;;;;;;;5007081;28;20136;-68
2024/02/02 11:28:54;;;;;;;3.03;1.30;;;;;;;;;;5015193;28;20079;-68
2024/02/02 11:31:38;;;;;;;2.53;1.20;;;;;;;;;;4986552;28;20041;-70
2024/02/02 11:34:06;;;;;;;3.25;1.27;;;;;;;;;;5013518;28;20099;-68
2024/02/02 11:36:46;;;;;;;2.60;1.30;;;;;;;;;;5009136;28;20041;-70
2024/02/02 11:39:28;;;;;;;2.40;1.50;;;;;;;;;;5022031;28;20342;-68
2024/02/02 11:41:55;;;;;;;1.75;1.05;;;;;;;;;;4995084;28;20036;-67
2024/02/02 11:44:20;;;;;;;1.67;1.10;;;;;;;;;;5004231;28;20037;-70
2024/02/02 11:46:47;;;;;;;2.17;1.35;;;;;;;;;;4994603;28;20124;-69
2024/02/02 11:49:18;;;;;;;2.83;1.20;;;;;;;;;;4993128;28;20045;-69
2024/02/02 11:51:48;;;;;;;2.22;1.25;;;;;;;;;;4987599;28;20388;-69
2024/02/02 11:54:33;;;;;;;4.15;1.30;;;;;;;;;;4991043;28;20045;-69
2024/02/02 11:57:01;;;;;;;2.17;1.00;;;;;;;;;;4999065;28;20049;-70
2024/02/02 11:59:33;;;;;;;1.90;1.00;;;;;;;;;;4990059;28;20088;-69
2024/02/02 12:02:16;;;;;;;6.70;1.15;;;;;;;;;;4994232;28;20034;-68
2024/02/02 12:04:45;;;;;;;1.55;0.90;;;;;;;;;;5005754;28;20037;-69
2024/02/02 12:07:16;;;;;;;1.73;0.98;;;;;;;;;;5017947;28;20046;-68
2024/02/02 12:09:49;;;;;;;2.30;1.17;;;;;;;;;;5018911;28;20531;-69
2024/02/02 12:12:31;;;;;;;1.73;1.00;;;;;;;;;;5014154;28;20053;-70
2024/02/02 12:14:56;;;;;;;3.03;1.52;;;;;;;;;;5011889;28;20053;-69
2024/02/02 12:17:22;;;;;;;2.50;1.25;;;;;;;;;;5010033;28;20053;-69
2024/02/02 12:19:48;;;;;;;1.80;1.02;;;;;;;;;;5007649;28;20065;-69
2024/02/02 12:22:14;;;;;;;1.90;1.10;;;;;;;;;;5009928;28;20045;-69
2024/02/02 12:24:40;;;;;;;3.35;1.77;;;;;;;;;;5023051;28;20034;-70
2024/02/02 12:27:07;;;;;;;3.08;1.00;;;;;;;;;;5001130;28;20091;-68
2024/02/02 12:29:34;;;;;;;2.95;1.65;;;;;;;;;;5023789;28;20049;-69
2024/02/02 12:31:59;;;;;;;2.70;1.27;;;;;;;;;;4989565;28;20030;-70
2024/02/02 12:34:24;;;;;;;3.83;1.40;;;;;;;;;;4976657;28;20030;-68
2024/02/02 12:36:51;;;;;;;3.25;1.33;;;;;;;;;;5000172;28;20045;-70
2024/02/02 12:39:16;;;;;;;2.33;1.08;;;;;;;;;;5014800;28;20072;-69
2024/02/02 12:41:42;;;;;;;2.22;1.17;;;;;;;;;;5004467;28;20108;-70
2024/02/02 12:44:07;;;;;;;2.78;1.15;;;;;;;;;;5006794;28;20091;-69
2024/02/02 12:46:45;;;;;;;2.53;1.17;;;;;;;;;;5006519;28;20673;-69
2024/02/02 12:49:11;;;;;;;1.60;0.90;;;;;;;;;;5003547;28;20029;-69
2024/02/02 12:51:37;;;;;;;2.38;1.00;;;;;;;;;;5009372;28;20041;-69
2024/02/02 12:54:03;;;;;;;1.90;1.02;;;;;;;;;;5005841;28;20057;-69
2024/02/02 12:56:28;;;;;;;1.67;0.70;;;;;;;;;;5014757;28;20088;-68
2024/02/02 12:58:54;;;;;;;2.40;1.10;;;;;;;;;;5017847;28;20105;-69
2024/02/02 13:01:20;;;;;;;1.40;0.80;;;;;;;;;;5010541;28;20057;-69
2024/02/02 13:03:46;;;;;;;1.85;1.10;;;;;;;;;;5019154;28;20037;-68
2024/02/02 13:06:11;;;;;;;1.65;0.80;;;;;;;;;;5010729;28;20046;-69
2024/02/02 13:08:38;;;;;;;2.35;1.10;;;;;;;;;;4998601;28;20037;-68
2024/02/02 13:11:06;;;;;;;2.35;0.75;;;;;;;;;;5016160;28;20038;-69
2024/02/02 13:13:33;;;;;;;1.77;0.93;;;;;;;;;;5007904;28;20081;-69
2024/02/02 13:15:59;;;;;;;2.53;1.25;;;;;;;;;;5011059;28;20045;-69
2024/02/02 13:18:25;;;;;;;2.00;1.00;;;;;;;;;;5013217;28;20184;-69
2024/02/02 13:20:54;;;;;;;2.10;1.00;;;;;;;;;;4999182;28;20034;-69
2024/02/02 13:23:27;;;;;;;3.80;1.23;;;;;;;;;;5009341;28;20037;-69
2024/02/02 13:26:00;;;;;;;2.45;1.08;;;;;;;;;;5011275;28;20038;-68
2024/02/02 13:28:38;;;;;;;2.03;1.23;;;;;;;;;;5011606;28;20095;-68
2024/02/02 13:31:12;;;;;;;2.08;1.17;;;;;;;;;;5013759;28;20109;-69
2024/02/02 13:33:38;;;;;;;2.22;1.27;;;;;;;;;;5012833;28;20042;-69
2024/02/02 13:36:09;;;;;;;4.45;2.00;;;;;;;;;;5007197;28;20911;-69
2024/02/02 13:38:35;;;;;;;6.65;3.05;;;;;;;;;;5015675;28;20042;-69
2024/02/02 13:41:01;;;;;;;2.80;1.70;;;;;;;;;;5010582;28;20033;-69
2024/02/02 13:43:27;;;;;;;5.35;2.97;;;;;;;;;;5015448;28;20057;-69
2024/02/02 13:46:01;;;;;;;4.22;2.10;;;;;;;;;;5012907;28;20064;-68
2024/02/02 13:48:37;;;;;;;7.32;3.40;;;;;;;;;;5010924;28;20042;-69
2024/02/02 13:51:04;;;;;;;3.10;1.67;;;;;;;;;;5014513;28;20567;-69
2024/02/02 13:53:29;;;;;;;3.47;1.38;;;;;;;;;;5022020;28;20041;-69
2024/02/02 13:55:55;;;;;;;3.60;1.67;;;;;;;;;;4994427;28;20049;-69
2024/02/02 13:58:22;;;;;;;2.50;1.35;;;;;;;;;;5020790;28;20635;-68
2024/02/02 14:00:47;;;;;;;2.10;1.20;;;;;;;;;;5011976;28;20652;-68
2024/02/02 14:03:17;;;;;;;2.83;1.45;;;;;;;;;;5017707;28;20068;-69
2024/02/02 14:05:42;;;;;;;2.35;1.33;;;;;;;;;;5016393;28;20034;-69
2024/02/02 14:08:08;;;;;;;3.70;1.60;;;;;;;;;;4998960;28;20049;-69
2024/02/02 14:10:44;;;;;;;3.03;1.40;;;;;;;;;;5008530;28;20449;-70
2024/02/02 14:13:17;;;;;;;2.80;1.52;;;;;;;;;;5020356;28;20116;-70
2024/02/02 14:15:44;;;;;;;4.25;1.50;;;;;;;;;;4989829;28;20034;-70
2024/02/02 14:18:13;;;;;;;2.22;1.40;;;;;;;;;;5013047;28;20057;-69
2024/02/02 14:20:40;;;;;;;3.20;1.52;;;;;;;;;;5008798;28;20042;-70
2024/02/02 14:23:12;;;;;;;2.60;1.40;;;;;;;;;;5003780;28;20056;-70
2024/02/02 14:25:38;;;;;;;3.30;1.40;;;;;;;;;;5013109;28;20087;-69
2024/02/02 14:28:17;;;;;;;2.88;1.58;;;;;;;;;;5017180;28;20453;-70
2024/02/02 14:30:44;;;;;;;4.18;1.30;;;;;;;;;;5016912;28;20033;-70
2024/02/02 14:33:10;;;;;;;2.40;1.40;;;;;;;;;;5005597;28;20117;-69
2024/02/02 14:35:37;;;;;;;1.65;1.00;;;;;;;;;;5024121;28;20041;-71
2024/02/02 14:38:02;;;;;;;2.30;1.35;;;;;;;;;;5018013;28;20046;-70
2024/02/02 14:40:27;;;;;;;3.05;1.60;;;;;;;;;;5012437;28;20044;-71
2024/02/02 14:42:53;;;;;;;2.85;1.50;;;;;;;;;;5011060;28;20045;-70
2024/02/02 14:45:19;;;;;;;2.30;1.33;;;;;;;;;;5016001;28;20072;-70
2024/02/02 14:47:44;;;;;;;2.28;1.25;;;;;;;;;;5014403;28;20029;-71
2024/02/02 14:50:10;;;;;;;3.00;1.42;;;;;;;;;;5016827;28;20037;-69
2024/02/02 14:52:35;;;;;;;3.38;1.58;;;;;;;;;;5001350;28;20112;-71